Lynnville, Kentucky
Current Conditions -  °F | °C
As of 6:35 PM on Thursday 18 Dec 2014 (Local Time) from KCEY Reporting Station
Overcast Overcast  
Wind Chill: 32°   Ceiling: 5000
Heat Index: 36°   Visibility: 10mi
Dew Point: 32°   Wind: 5mph
Humidity: 87%   Direction: 50°NE
Pressure: 30.23"   Gusts: NA
Location:  36.56°N, 88.57°W
Report Text: KCEY 190035Z AUTO 05004KT 10SM FEW024 OVC050 02/00 A3023 RMK AO1
Loading
Personal Weather Stations






























Interactive Weather Map New forecast layout! Learn more

10-Day Weather Forecast

Advertisements
Track Severe Weather on mobile